sensor_id;sensor_type;location;lat;lon;timestamp;P1;durP1;ratioP1;P2;durP2;ratioP2
813;SDS011;389;48.710;9.392;2023-05-13T00:00:11;6.40;;;4.00;;
813;SDS011;389;48.710;9.392;2023-05-13T00:02:37;4.30;;;3.90;;
813;SDS011;389;48.710;9.392;2023-05-13T00:05:03;5.70;;;4.27;;
813;SDS011;389;48.710;9.392;2023-05-13T00:07:28;5.33;;;4.70;;
813;SDS011;389;48.710;9.392;2023-05-13T00:09:54;4.93;;;4.40;;
813;SDS011;389;48.710;9.392;2023-05-13T00:12:20;7.57;;;4.90;;
813;SDS011;389;48.710;9.392;2023-05-13T00:14:45;6.00;;;3.93;;
813;SDS011;389;48.710;9.392;2023-05-13T00:17:14;4.30;;;3.90;;
813;SDS011;389;48.710;9.392;2023-05-13T00:19:40;3.87;;;3.57;;
813;SDS011;389;48.710;9.392;2023-05-13T00:22:05;4.73;;;4.23;;
813;SDS011;389;48.710;9.392;2023-05-13T00:24:31;4.40;;;3.90;;
813;SDS011;389;48.710;9.392;2023-05-13T00:26:57;4.57;;;4.17;;
813;SDS011;389;48.710;9.392;2023-05-13T00:29:23;6.20;;;4.83;;
813;SDS011;389;48.710;9.392;2023-05-13T00:31:48;5.57;;;4.20;;
813;SDS011;389;48.710;9.392;2023-05-13T00:34:15;5.67;;;4.50;;
813;SDS011;389;48.710;9.392;2023-05-13T00:36:42;4.90;;;4.23;;
813;SDS011;389;48.710;9.392;2023-05-13T00:39:08;5.50;;;4.63;;
813;SDS011;389;48.710;9.392;2023-05-13T00:41:33;6.17;;;4.87;;
813;SDS011;389;48.710;9.392;2023-05-13T00:43:59;5.43;;;4.50;;
813;SDS011;389;48.710;9.392;2023-05-13T00:46:25;6.83;;;4.53;;
813;SDS011;389;48.710;9.392;2023-05-13T00:48:57;4.53;;;4.13;;
813;SDS011;389;48.710;9.392;2023-05-13T00:51:23;5.57;;;4.80;;
813;SDS011;389;48.710;9.392;2023-05-13T00:53:49;7.53;;;4.10;;
813;SDS011;389;48.710;9.392;2023-05-13T00:56:19;5.17;;;4.37;;
813;SDS011;389;48.710;9.392;2023-05-13T00:58:48;5.20;;;3.87;;
813;SDS011;389;48.710;9.392;2023-05-13T01:09:47;4.07;;;3.70;;
813;SDS011;389;48.710;9.392;2023-05-13T01:12:43;5.17;;;3.47;;
813;SDS011;389;48.710;9.392;2023-05-13T01:15:11;4.77;;;4.00;;
813;SDS011;389;48.710;9.392;2023-05-13T01:20:08;4.47;;;3.50;;
813;SDS011;389;48.710;9.392;2023-05-13T01:22:35;5.90;;;4.43;;
813;SDS011;389;48.710;9.392;2023-05-13T01:25:00;4.23;;;3.83;;
813;SDS011;389;48.710;9.392;2023-05-13T01:27:26;4.27;;;3.87;;
813;SDS011;389;48.710;9.392;2023-05-13T01:29:52;5.60;;;3.50;;
813;SDS011;389;48.710;9.392;2023-05-13T01:32:19;4.50;;;3.50;;
813;SDS011;389;48.710;9.392;2023-05-13T01:34:46;4.43;;;3.87;;
813;SDS011;389;48.710;9.392;2023-05-13T01:37:13;4.10;;;3.70;;
813;SDS011;389;48.710;9.392;2023-05-13T01:39:43;4.50;;;3.57;;
813;SDS011;389;48.710;9.392;2023-05-13T01:42:09;4.03;;;3.50;;
813;SDS011;389;48.710;9.392;2023-05-13T01:44:35;4.10;;;3.40;;
813;SDS011;389;48.710;9.392;2023-05-13T01:47:00;3.70;;;3.30;;
813;SDS011;389;48.710;9.392;2023-05-13T01:49:26;5.20;;;4.00;;
813;SDS011;389;48.710;9.392;2023-05-13T01:51:51;4.53;;;3.83;;
813;SDS011;389;48.710;9.392;2023-05-13T01:54:17;4.20;;;3.60;;
813;SDS011;389;48.710;9.392;2023-05-13T01:56:42;4.47;;;4.07;;
813;SDS011;389;48.710;9.392;2023-05-13T01:59:09;5.57;;;3.70;;
813;SDS011;389;48.710;9.392;2023-05-13T02:01:35;4.73;;;3.70;;
813;SDS011;389;48.710;9.392;2023-05-13T02:04:01;5.40;;;4.20;;
813;SDS011;389;48.710;9.392;2023-05-13T02:06:26;6.37;;;4.10;;
813;SDS011;389;48.710;9.392;2023-05-13T02:08:52;4.40;;;3.40;;
813;SDS011;389;48.710;9.392;2023-05-13T02:11:18;5.20;;;3.87;;
813;SDS011;389;48.710;9.392;2023-05-13T02:13:43;5.83;;;4.17;;
813;SDS011;389;48.710;9.392;2023-05-13T02:16:10;4.73;;;4.20;;
813;SDS011;389;48.710;9.392;2023-05-13T02:18:38;4.07;;;3.70;;
813;SDS011;389;48.710;9.392;2023-05-13T02:21:04;4.37;;;3.83;;
813;SDS011;389;48.710;9.392;2023-05-13T02:23:30;6.00;;;3.70;;
813;SDS011;389;48.710;9.392;2023-05-13T02:28:44;4.10;;;3.60;;
813;SDS011;389;48.710;9.392;2023-05-13T02:31:10;4.47;;;3.83;;
813;SDS011;389;48.710;9.392;2023-05-13T02:33:35;4.90;;;4.10;;
813;SDS011;389;48.710;9.392;2023-05-13T02:36:01;3.60;;;3.23;;
813;SDS011;389;48.710;9.392;2023-05-13T02:38:27;4.20;;;3.63;;
813;SDS011;389;48.710;9.392;2023-05-13T02:40:52;4.03;;;3.67;;
813;SDS011;389;48.710;9.392;2023-05-13T02:43:18;7.17;;;3.93;;
813;SDS011;389;48.710;9.392;2023-05-13T02:45:44;3.30;;;3.00;;
813;SDS011;389;48.710;9.392;2023-05-13T02:48:10;5.33;;;3.73;;
813;SDS011;389;48.710;9.392;2023-05-13T02:50:44;3.70;;;3.37;;
813;SDS011;389;48.710;9.392;2023-05-13T02:53:10;3.90;;;3.60;;
813;SDS011;389;48.710;9.392;2023-05-13T02:55:35;3.47;;;3.17;;
813;SDS011;389;48.710;9.392;2023-05-13T02:58:01;3.43;;;3.13;;
813;SDS011;389;48.710;9.392;2023-05-13T03:00:26;4.10;;;3.70;;
813;SDS011;389;48.710;9.392;2023-05-13T03:02:52;5.57;;;3.00;;
813;SDS011;389;48.710;9.392;2023-05-13T03:05:17;4.80;;;3.37;;
813;SDS011;389;48.710;9.392;2023-05-13T03:07:43;3.53;;;3.23;;
813;SDS011;389;48.710;9.392;2023-05-13T03:10:09;4.37;;;2.90;;
813;SDS011;389;48.710;9.392;2023-05-13T03:12:34;3.10;;;2.90;;
813;SDS011;389;48.710;9.392;2023-05-13T03:15:00;3.50;;;3.20;;
813;SDS011;389;48.710;9.392;2023-05-13T03:17:26;3.37;;;2.80;;
813;SDS011;389;48.710;9.392;2023-05-13T03:19:54;3.80;;;3.30;;
813;SDS011;389;48.710;9.392;2023-05-13T03:22:20;11.00;;;3.33;;
813;SDS011;389;48.710;9.392;2023-05-13T03:24:46;3.47;;;3.17;;
813;SDS011;389;48.710;9.392;2023-05-13T03:27:11;3.70;;;2.97;;
813;SDS011;389;48.710;9.392;2023-05-13T03:29:37;4.77;;;3.40;;
813;SDS011;389;48.710;9.392;2023-05-13T03:32:03;3.50;;;3.20;;
813;SDS011;389;48.710;9.392;2023-05-13T03:34:30;3.47;;;3.17;;
813;SDS011;389;48.710;9.392;2023-05-13T03:36:57;7.20;;;3.50;;
813;SDS011;389;48.710;9.392;2023-05-13T03:39:22;3.53;;;3.23;;
813;SDS011;389;48.710;9.392;2023-05-13T03:41:50;3.67;;;3.33;;
813;SDS011;389;48.710;9.392;2023-05-13T03:44:16;3.97;;;2.70;;
813;SDS011;389;48.710;9.392;2023-05-13T03:46:42;4.00;;;3.40;;
813;SDS011;389;48.710;9.392;2023-05-13T03:49:10;3.17;;;2.97;;
813;SDS011;389;48.710;9.392;2023-05-13T03:51:36;3.30;;;3.00;;
813;SDS011;389;48.710;9.392;2023-05-13T03:54:01;3.60;;;3.30;;
813;SDS011;389;48.710;9.392;2023-05-13T03:56:27;3.47;;;3.17;;
813;SDS011;389;48.710;9.392;2023-05-13T03:58:53;4.57;;;3.37;;
813;SDS011;389;48.710;9.392;2023-05-13T04:01:18;4.40;;;3.40;;
813;SDS011;389;48.710;9.392;2023-05-13T04:03:45;3.37;;;3.07;;
813;SDS011;389;48.710;9.392;2023-05-13T04:06:10;4.63;;;3.27;;
813;SDS011;389;48.710;9.392;2023-05-13T04:08:38;3.80;;;3.50;;
813;SDS011;389;48.710;9.392;2023-05-13T04:11:04;3.43;;;3.10;;
813;SDS011;389;48.710;9.392;2023-05-13T04:13:31;4.07;;;3.30;;
813;SDS011;389;48.710;9.392;2023-05-13T04:15:58;3.27;;;2.97;;
813;SDS011;389;48.710;9.392;2023-05-13T04:18:24;3.30;;;3.00;;
813;SDS011;389;48.710;9.392;2023-05-13T04:20:50;6.10;;;3.20;;
813;SDS011;389;48.710;9.392;2023-05-13T04:23:16;4.97;;;3.13;;
813;SDS011;389;48.710;9.392;2023-05-13T04:25:42;4.53;;;3.50;;
813;SDS011;389;48.710;9.392;2023-05-13T04:28:07;3.83;;;3.10;;
813;SDS011;389;48.710;9.392;2023-05-13T04:30:38;3.60;;;3.30;;
813;SDS011;389;48.710;9.392;2023-05-13T04:33:04;3.60;;;3.27;;
813;SDS011;389;48.710;9.392;2023-05-13T04:35:30;3.47;;;3.17;;
813;SDS011;389;48.710;9.392;2023-05-13T04:37:56;4.30;;;3.23;;
813;SDS011;389;48.710;9.392;2023-05-13T04:40:21;4.67;;;3.47;;
813;SDS011;389;48.710;9.392;2023-05-13T04:42:47;3.73;;;3.40;;
813;SDS011;389;48.710;9.392;2023-05-13T04:45:18;9.93;;;3.70;;
813;SDS011;389;48.710;9.392;2023-05-13T04:47:44;3.77;;;3.03;;
813;SDS011;389;48.710;9.392;2023-05-13T04:50:10;3.70;;;3.17;;
813;SDS011;389;48.710;9.392;2023-05-13T04:52:35;6.33;;;3.27;;
813;SDS011;389;48.710;9.392;2023-05-13T04:55:01;3.50;;;3.20;;
813;SDS011;389;48.710;9.392;2023-05-13T04:57:27;3.80;;;3.50;;
813;SDS011;389;48.710;9.392;2023-05-13T04:59:52;4.73;;;3.73;;
813;SDS011;389;48.710;9.392;2023-05-13T05:02:18;4.00;;;3.60;;
813;SDS011;389;48.710;9.392;2023-05-13T05:04:44;4.20;;;3.30;;
813;SDS011;389;48.710;9.392;2023-05-13T05:07:10;4.00;;;3.60;;
813;SDS011;389;48.710;9.392;2023-05-13T05:09:35;3.90;;;3.60;;
813;SDS011;389;48.710;9.392;2023-05-13T05:12:01;6.50;;;3.77;;
813;SDS011;389;48.710;9.392;2023-05-13T05:14:27;6.40;;;3.50;;
813;SDS011;389;48.710;9.392;2023-05-13T05:16:52;4.43;;;4.03;;
813;SDS011;389;48.710;9.392;2023-05-13T05:19:18;4.07;;;3.67;;
813;SDS011;389;48.710;9.392;2023-05-13T05:21:48;4.67;;;4.23;;
813;SDS011;389;48.710;9.392;2023-05-13T05:24:17;3.40;;;3.10;;
813;SDS011;389;48.710;9.392;2023-05-13T05:26:42;5.43;;;3.47;;
813;SDS011;389;48.710;9.392;2023-05-13T05:29:08;3.90;;;3.50;;
813;SDS011;389;48.710;9.392;2023-05-13T05:31:34;7.83;;;3.73;;
813;SDS011;389;48.710;9.392;2023-05-13T05:34:01;3.97;;;3.67;;
813;SDS011;389;48.710;9.392;2023-05-13T05:36:27;4.27;;;3.87;;
813;SDS011;389;48.710;9.392;2023-05-13T05:38:53;5.03;;;4.33;;
813;SDS011;389;48.710;9.392;2023-05-13T05:41:19;4.17;;;3.77;;
813;SDS011;389;48.710;9.392;2023-05-13T05:43:48;7.10;;;3.70;;
813;SDS011;389;48.710;9.392;2023-05-13T05:46:14;3.90;;;3.60;;
813;SDS011;389;48.710;9.392;2023-05-13T05:48:41;4.00;;;3.60;;
813;SDS011;389;48.710;9.392;2023-05-13T05:51:07;3.63;;;3.33;;
813;SDS011;389;48.710;9.392;2023-05-13T05:53:33;3.83;;;3.47;;
813;SDS011;389;48.710;9.392;2023-05-13T05:56:01;6.60;;;4.37;;
813;SDS011;389;48.710;9.392;2023-05-13T05:58:27;5.30;;;4.37;;
813;SDS011;389;48.710;9.392;2023-05-13T06:00:53;3.93;;;3.63;;
813;SDS011;389;48.710;9.392;2023-05-13T06:03:19;4.80;;;4.17;;
813;SDS011;389;48.710;9.392;2023-05-13T06:05:45;4.73;;;3.80;;
813;SDS011;389;48.710;9.392;2023-05-13T06:08:11;4.00;;;3.63;;
813;SDS011;389;48.710;9.392;2023-05-13T06:10:36;4.70;;;4.20;;
813;SDS011;389;48.710;9.392;2023-05-13T06:13:02;5.67;;;3.80;;
813;SDS011;389;48.710;9.392;2023-05-13T06:15:28;5.00;;;4.10;;
813;SDS011;389;48.710;9.392;2023-05-13T06:17:54;8.20;;;3.93;;
813;SDS011;389;48.710;9.392;2023-05-13T06:20:21;3.97;;;3.60;;
813;SDS011;389;48.710;9.392;2023-05-13T06:22:46;4.97;;;3.87;;
813;SDS011;389;48.710;9.392;2023-05-13T06:25:12;4.43;;;3.67;;
813;SDS011;389;48.710;9.392;2023-05-13T06:27:38;4.30;;;3.70;;
813;SDS011;389;48.710;9.392;2023-05-13T06:30:03;3.57;;;3.27;;
813;SDS011;389;48.710;9.392;2023-05-13T06:32:30;5.70;;;3.80;;
813;SDS011;389;48.710;9.392;2023-05-13T06:34:56;5.00;;;4.30;;
813;SDS011;389;48.710;9.392;2023-05-13T06:37:21;4.37;;;3.97;;
813;SDS011;389;48.710;9.392;2023-05-13T06:39:47;3.87;;;3.50;;
813;SDS011;389;48.710;9.392;2023-05-13T06:42:13;4.27;;;3.67;;
813;SDS011;389;48.710;9.392;2023-05-13T06:44:38;5.20;;;3.77;;
813;SDS011;389;48.710;9.392;2023-05-13T06:47:04;3.73;;;3.27;;
813;SDS011;389;48.710;9.392;2023-05-13T06:49:33;4.63;;;3.83;;
813;SDS011;389;48.710;9.392;2023-05-13T06:51:59;5.07;;;3.97;;
813;SDS011;389;48.710;9.392;2023-05-13T06:54:24;4.83;;;3.63;;
813;SDS011;389;48.710;9.392;2023-05-13T06:56:52;5.70;;;4.57;;
813;SDS011;389;48.710;9.392;2023-05-13T06:59:18;4.20;;;3.80;;
813;SDS011;389;48.710;9.392;2023-05-13T07:01:48;4.67;;;3.57;;
813;SDS011;389;48.710;9.392;2023-05-13T07:04:14;5.57;;;3.40;;
813;SDS011;389;48.710;9.392;2023-05-13T07:06:40;5.70;;;4.30;;
813;SDS011;389;48.710;9.392;2023-05-13T07:09:06;4.00;;;3.60;;
813;SDS011;389;48.710;9.392;2023-05-13T07:11:34;4.90;;;3.63;;
813;SDS011;389;48.710;9.392;2023-05-13T07:14:00;5.00;;;3.50;;
813;SDS011;389;48.710;9.392;2023-05-13T07:16:25;4.83;;;4.33;;
813;SDS011;389;48.710;9.392;2023-05-13T07:18:51;5.67;;;4.80;;
813;SDS011;389;48.710;9.392;2023-05-13T07:21:18;4.63;;;3.90;;
813;SDS011;389;48.710;9.392;2023-05-13T07:23:44;4.80;;;4.33;;
813;SDS011;389;48.710;9.392;2023-05-13T07:26:09;4.93;;;4.13;;
813;SDS011;389;48.710;9.392;2023-05-13T07:28:35;5.90;;;4.50;;
813;SDS011;389;48.710;9.392;2023-05-13T07:31:01;8.83;;;5.30;;
813;SDS011;389;48.710;9.392;2023-05-13T07:33:29;5.30;;;4.47;;
813;SDS011;389;48.710;9.392;2023-05-13T07:35:55;6.70;;;4.77;;
813;SDS011;389;48.710;9.392;2023-05-13T07:38:21;4.70;;;4.20;;
813;SDS011;389;48.710;9.392;2023-05-13T07:40:46;7.93;;;4.50;;
813;SDS011;389;48.710;9.392;2023-05-13T07:43:12;5.20;;;4.20;;
813;SDS011;389;48.710;9.392;2023-05-13T07:45:39;7.50;;;4.50;;
813;SDS011;389;48.710;9.392;2023-05-13T07:48:04;5.47;;;3.97;;
813;SDS011;389;48.710;9.392;2023-05-13T07:50:30;5.13;;;4.13;;
813;SDS011;389;48.710;9.392;2023-05-13T07:52:56;6.07;;;4.07;;
813;SDS011;389;48.710;9.392;2023-05-13T07:55:22;4.90;;;4.30;;
813;SDS011;389;48.710;9.392;2023-05-13T07:57:47;4.70;;;4.17;;
813;SDS011;389;48.710;9.392;2023-05-13T08:00:13;5.83;;;3.80;;
813;SDS011;389;48.710;9.392;2023-05-13T08:02:40;4.27;;;3.87;;
813;SDS011;389;48.710;9.392;2023-05-13T08:05:07;4.70;;;4.10;;
813;SDS011;389;48.710;9.392;2023-05-13T08:07:33;3.80;;;3.50;;
813;SDS011;389;48.710;9.392;2023-05-13T08:09:59;4.60;;;4.20;;
813;SDS011;389;48.710;9.392;2023-05-13T08:12:25;5.37;;;4.00;;
813;SDS011;389;48.710;9.392;2023-05-13T08:14:50;4.47;;;4.07;;
813;SDS011;389;48.710;9.392;2023-05-13T08:17:16;4.70;;;3.80;;
813;SDS011;389;48.710;9.392;2023-05-13T08:19:43;4.37;;;3.90;;
813;SDS011;389;48.710;9.392;2023-05-13T08:22:09;4.57;;;3.60;;
813;SDS011;389;48.710;9.392;2023-05-13T08:24:35;5.87;;;4.43;;
813;SDS011;389;48.710;9.392;2023-05-13T08:27:00;4.40;;;3.97;;
813;SDS011;389;48.710;9.392;2023-05-13T08:29:30;6.07;;;4.40;;
813;SDS011;389;48.710;9.392;2023-05-13T08:31:56;4.73;;;4.07;;
813;SDS011;389;48.710;9.392;2023-05-13T08:34:21;5.13;;;3.73;;
813;SDS011;389;48.710;9.392;2023-05-13T08:36:47;4.93;;;4.40;;
813;SDS011;389;48.710;9.392;2023-05-13T08:39:13;4.67;;;4.17;;
813;SDS011;389;48.710;9.392;2023-05-13T08:41:38;4.33;;;3.73;;
813;SDS011;389;48.710;9.392;2023-05-13T08:44:06;4.73;;;4.30;;
813;SDS011;389;48.710;9.392;2023-05-13T08:46:35;4.13;;;3.60;;
813;SDS011;389;48.710;9.392;2023-05-13T08:49:01;4.70;;;4.30;;
813;SDS011;389;48.710;9.392;2023-05-13T08:51:27;4.10;;;3.70;;
813;SDS011;389;48.710;9.392;2023-05-13T08:53:53;4.40;;;4.00;;
813;SDS011;389;48.710;9.392;2023-05-13T08:56:20;4.60;;;4.20;;
813;SDS011;389;48.710;9.392;2023-05-13T08:58:52;4.37;;;3.70;;
813;SDS011;389;48.710;9.392;2023-05-13T09:01:18;3.80;;;3.50;;
813;SDS011;389;48.710;9.392;2023-05-13T09:03:53;4.33;;;3.93;;
813;SDS011;389;48.710;9.392;2023-05-13T09:06:26;4.33;;;3.87;;
813;SDS011;389;48.710;9.392;2023-05-13T09:08:52;3.90;;;3.60;;
813;SDS011;389;48.710;9.392;2023-05-13T09:11:18;4.70;;;3.90;;
813;SDS011;389;48.710;9.392;2023-05-13T09:13:54;4.17;;;3.77;;
813;SDS011;389;48.710;9.392;2023-05-13T09:16:23;3.90;;;3.50;;
813;SDS011;389;48.710;9.392;2023-05-13T09:18:55;5.40;;;3.83;;
813;SDS011;389;48.710;9.392;2023-05-13T09:21:25;4.60;;;4.20;;
813;SDS011;389;48.710;9.392;2023-05-13T09:24:10;4.20;;;3.80;;
813;SDS011;389;48.710;9.392;2023-05-13T09:26:47;3.80;;;3.40;;
813;SDS011;389;48.710;9.392;2023-05-13T09:31:42;4.87;;;3.70;;
813;SDS011;389;48.710;9.392;2023-05-13T09:34:08;3.43;;;3.13;;
813;SDS011;389;48.710;9.392;2023-05-13T09:36:34;3.67;;;3.37;;
813;SDS011;389;48.710;9.392;2023-05-13T09:39:01;4.77;;;3.10;;
813;SDS011;389;48.710;9.392;2023-05-13T09:41:27;3.37;;;3.10;;
813;SDS011;389;48.710;9.392;2023-05-13T09:43:56;3.57;;;2.90;;
813;SDS011;389;48.710;9.392;2023-05-13T09:46:22;4.13;;;3.50;;
813;SDS011;389;48.710;9.392;2023-05-13T09:48:49;4.83;;;3.53;;
813;SDS011;389;48.710;9.392;2023-05-13T09:51:24;3.30;;;3.10;;
813;SDS011;389;48.710;9.392;2023-05-13T09:54:03;3.37;;;3.07;;
813;SDS011;389;48.710;9.392;2023-05-13T09:56:34;3.33;;;3.07;;
813;SDS011;389;48.710;9.392;2023-05-13T09:59:03;3.37;;;2.83;;
813;SDS011;389;48.710;9.392;2023-05-13T10:01:29;3.30;;;2.70;;
813;SDS011;389;48.710;9.392;2023-05-13T10:03:55;3.33;;;3.13;;
813;SDS011;389;48.710;9.392;2023-05-13T10:06:23;3.17;;;2.97;;
813;SDS011;389;48.710;9.392;2023-05-13T10:08:50;3.33;;;3.00;;
813;SDS011;389;48.710;9.392;2023-05-13T10:11:17;2.93;;;2.73;;
813;SDS011;389;48.710;9.392;2023-05-13T10:13:49;3.17;;;2.87;;
813;SDS011;389;48.710;9.392;2023-05-13T10:16:28;6.97;;;4.33;;
813;SDS011;389;48.710;9.392;2023-05-13T10:18:59;3.13;;;2.93;;
813;SDS011;389;48.710;9.392;2023-05-13T10:21:28;3.73;;;2.60;;
813;SDS011;389;48.710;9.392;2023-05-13T10:23:55;3.30;;;3.03;;
813;SDS011;389;48.710;9.392;2023-05-13T10:26:28;3.43;;;3.13;;
813;SDS011;389;48.710;9.392;2023-05-13T10:29:08;3.50;;;3.20;;
813;SDS011;389;48.710;9.392;2023-05-13T10:31:36;3.10;;;2.90;;
813;SDS011;389;48.710;9.392;2023-05-13T10:34:02;3.47;;;3.17;;
813;SDS011;389;48.710;9.392;2023-05-13T10:39:40;3.30;;;3.00;;
813;SDS011;389;48.710;9.392;2023-05-13T10:45:07;4.40;;;3.87;;
813;SDS011;389;48.710;9.392;2023-05-13T10:47:34;3.07;;;2.87;;
813;SDS011;389;48.710;9.392;2023-05-13T10:50:04;2.90;;;2.70;;
813;SDS011;389;48.710;9.392;2023-05-13T10:52:45;3.40;;;2.60;;
813;SDS011;389;48.710;9.392;2023-05-13T10:55:26;3.07;;;2.87;;
813;SDS011;389;48.710;9.392;2023-05-13T10:58:12;3.03;;;2.73;;
813;SDS011;389;48.710;9.392;2023-05-13T11:00:46;3.10;;;2.90;;
813;SDS011;389;48.710;9.392;2023-05-13T11:06:21;3.10;;;2.80;;
813;SDS011;389;48.710;9.392;2023-05-13T11:09:13;2.83;;;2.63;;
813;SDS011;389;48.710;9.392;2023-05-13T11:11:56;3.30;;;3.00;;
813;SDS011;389;48.710;9.392;2023-05-13T11:18:03;3.00;;;2.80;;
813;SDS011;389;48.710;9.392;2023-05-13T11:20:51;3.10;;;2.80;;
813;SDS011;389;48.710;9.392;2023-05-13T11:26:54;3.43;;;3.13;;
813;SDS011;389;48.710;9.392;2023-05-13T11:32:53;6.40;;;3.40;;
813;SDS011;389;48.710;9.392;2023-05-13T11:35:55;2.97;;;2.77;;
813;SDS011;389;48.710;9.392;2023-05-13T11:38:22;3.30;;;3.00;;
813;SDS011;389;48.710;9.392;2023-05-13T11:41:04;3.40;;;3.17;;
813;SDS011;389;48.710;9.392;2023-05-13T11:43:39;2.80;;;2.60;;
813;SDS011;389;48.710;9.392;2023-05-13T11:46:19;2.90;;;2.70;;
813;SDS011;389;48.710;9.392;2023-05-13T11:48:54;3.23;;;2.90;;
813;SDS011;389;48.710;9.392;2023-05-13T11:51:19;2.50;;;2.37;;
813;SDS011;389;48.710;9.392;2023-05-13T11:53:45;3.07;;;2.83;;
813;SDS011;389;48.710;9.392;2023-05-13T11:56:10;2.90;;;2.70;;
813;SDS011;389;48.710;9.392;2023-05-13T11:58:37;4.33;;;2.57;;
813;SDS011;389;48.710;9.392;2023-05-13T12:01:02;4.03;;;2.80;;
813;SDS011;389;48.710;9.392;2023-05-13T12:03:28;2.90;;;2.70;;
813;SDS011;389;48.710;9.392;2023-05-13T12:06:03;3.60;;;2.87;;
813;SDS011;389;48.710;9.392;2023-05-13T12:08:29;2.83;;;2.63;;
813;SDS011;389;48.710;9.392;2023-05-13T12:10:57;3.10;;;2.90;;
813;SDS011;389;48.710;9.392;2023-05-13T12:13:23;3.03;;;2.83;;
813;SDS011;389;48.710;9.392;2023-05-13T12:15:49;3.63;;;2.90;;
813;SDS011;389;48.710;9.392;2023-05-13T12:18:17;3.47;;;2.90;;
813;SDS011;389;48.710;9.392;2023-05-13T12:20:42;2.97;;;2.77;;
813;SDS011;389;48.710;9.392;2023-05-13T12:23:08;2.80;;;2.57;;
813;SDS011;389;48.710;9.392;2023-05-13T12:25:40;3.27;;;2.97;;
813;SDS011;389;48.710;9.392;2023-05-13T12:28:19;3.40;;;3.10;;
813;SDS011;389;48.710;9.392;2023-05-13T12:30:53;4.20;;;3.00;;
813;SDS011;389;48.710;9.392;2023-05-13T12:33:23;4.83;;;3.10;;
813;SDS011;389;48.710;9.392;2023-05-13T12:35:51;2.77;;;2.57;;
813;SDS011;389;48.710;9.392;2023-05-13T12:38:19;3.43;;;3.13;;
813;SDS011;389;48.710;9.392;2023-05-13T12:40:48;4.07;;;3.30;;
813;SDS011;389;48.710;9.392;2023-05-13T12:43:15;3.07;;;2.83;;
813;SDS011;389;48.710;9.392;2023-05-13T12:45:44;3.23;;;2.97;;
813;SDS011;389;48.710;9.392;2023-05-13T12:48:10;3.60;;;3.30;;
813;SDS011;389;48.710;9.392;2023-05-13T12:50:36;5.17;;;4.67;;
813;SDS011;389;48.710;9.392;2023-05-13T12:53:02;5.00;;;2.97;;
813;SDS011;389;48.710;9.392;2023-05-13T12:55:27;4.83;;;3.33;;
813;SDS011;389;48.710;9.392;2023-05-13T12:57:54;3.70;;;3.40;;
813;SDS011;389;48.710;9.392;2023-05-13T13:00:27;4.00;;;3.70;;
813;SDS011;389;48.710;9.392;2023-05-13T13:02:53;4.07;;;3.77;;
813;SDS011;389;48.710;9.392;2023-05-13T13:05:19;3.40;;;3.10;;
813;SDS011;389;48.710;9.392;2023-05-13T13:07:45;4.10;;;3.80;;
813;SDS011;389;48.710;9.392;2023-05-13T13:10:11;4.20;;;3.90;;
813;SDS011;389;48.710;9.392;2023-05-13T13:12:37;4.30;;;3.80;;
813;SDS011;389;48.710;9.392;2023-05-13T13:15:04;3.90;;;3.60;;
813;SDS011;389;48.710;9.392;2023-05-13T13:17:33;4.60;;;3.57;;
813;SDS011;389;48.710;9.392;2023-05-13T13:19:59;3.63;;;3.33;;
813;SDS011;389;48.710;9.392;2023-05-13T13:22:25;3.60;;;3.30;;
813;SDS011;389;48.710;9.392;2023-05-13T13:24:51;3.13;;;2.93;;
813;SDS011;389;48.710;9.392;2023-05-13T13:27:17;3.20;;;2.90;;
813;SDS011;389;48.710;9.392;2023-05-13T13:29:42;3.80;;;3.50;;
813;SDS011;389;48.710;9.392;2023-05-13T13:32:08;3.53;;;3.33;;
813;SDS011;389;48.710;9.392;2023-05-13T13:34:33;3.97;;;3.63;;
813;SDS011;389;48.710;9.392;2023-05-13T13:36:59;4.00;;;3.60;;
813;SDS011;389;48.710;9.392;2023-05-13T13:39:25;5.27;;;3.80;;
813;SDS011;389;48.710;9.392;2023-05-13T13:41:50;5.20;;;4.70;;
813;SDS011;389;48.710;9.392;2023-05-13T13:44:16;3.87;;;3.53;;
813;SDS011;389;48.710;9.392;2023-05-13T13:46:41;9.83;;;8.13;;
813;SDS011;389;48.710;9.392;2023-05-13T13:49:07;4.10;;;3.80;;
813;SDS011;389;48.710;9.392;2023-05-13T13:51:32;3.80;;;3.50;;
813;SDS011;389;48.710;9.392;2023-05-13T13:54:05;6.03;;;5.43;;
813;SDS011;389;48.710;9.392;2023-05-13T13:56:31;5.03;;;4.43;;
813;SDS011;389;48.710;9.392;2023-05-13T13:58:57;8.90;;;8.00;;
813;SDS011;389;48.710;9.392;2023-05-13T14:01:23;4.57;;;4.10;;
813;SDS011;389;48.710;9.392;2023-05-13T14:03:49;6.30;;;4.20;;
813;SDS011;389;48.710;9.392;2023-05-13T14:06:14;6.57;;;5.97;;
813;SDS011;389;48.710;9.392;2023-05-13T14:08:40;4.53;;;4.13;;
813;SDS011;389;48.710;9.392;2023-05-13T14:11:06;5.00;;;4.00;;
813;SDS011;389;48.710;9.392;2023-05-13T14:13:31;4.77;;;4.33;;
813;SDS011;389;48.710;9.392;2023-05-13T14:15:57;5.00;;;4.60;;
813;SDS011;389;48.710;9.392;2023-05-13T14:18:22;5.00;;;4.50;;
813;SDS011;389;48.710;9.392;2023-05-13T14:20:48;4.90;;;4.43;;
813;SDS011;389;48.710;9.392;2023-05-13T14:23:14;4.23;;;3.83;;
813;SDS011;389;48.710;9.392;2023-05-13T14:25:40;5.50;;;4.80;;
813;SDS011;389;48.710;9.392;2023-05-13T14:28:06;4.60;;;4.20;;
813;SDS011;389;48.710;9.392;2023-05-13T14:30:31;5.10;;;4.60;;
813;SDS011;389;48.710;9.392;2023-05-13T14:32:57;5.00;;;4.50;;
813;SDS011;389;48.710;9.392;2023-05-13T14:35:24;4.37;;;3.97;;
813;SDS011;389;48.710;9.392;2023-05-13T14:37:50;5.40;;;4.90;;
813;SDS011;389;48.710;9.392;2023-05-13T14:40:15;6.80;;;5.20;;
813;SDS011;389;48.710;9.392;2023-05-13T14:42:41;5.13;;;4.63;;
813;SDS011;389;48.710;9.392;2023-05-13T14:45:06;5.00;;;4.60;;
813;SDS011;389;48.710;9.392;2023-05-13T14:47:32;8.80;;;5.03;;
813;SDS011;389;48.710;9.392;2023-05-13T14:49:59;6.20;;;5.70;;
813;SDS011;389;48.710;9.392;2023-05-13T14:52:24;5.20;;;4.70;;
813;SDS011;389;48.710;9.392;2023-05-13T14:54:50;6.60;;;5.10;;
813;SDS011;389;48.710;9.392;2023-05-13T14:57:16;5.33;;;4.83;;
813;SDS011;389;48.710;9.392;2023-05-13T14:59:41;6.07;;;5.50;;
813;SDS011;389;48.710;9.392;2023-05-13T15:02:07;6.20;;;5.60;;
813;SDS011;389;48.710;9.392;2023-05-13T15:04:32;8.93;;;4.87;;
813;SDS011;389;48.710;9.392;2023-05-13T15:06:58;5.47;;;4.97;;
813;SDS011;389;48.710;9.392;2023-05-13T15:09:25;6.00;;;5.40;;
813;SDS011;389;48.710;9.392;2023-05-13T15:11:51;5.20;;;4.70;;
813;SDS011;389;48.710;9.392;2023-05-13T15:14:17;6.20;;;5.40;;
813;SDS011;389;48.710;9.392;2023-05-13T15:16:42;5.60;;;5.10;;
813;SDS011;389;48.710;9.392;2023-05-13T15:19:08;8.23;;;6.50;;
813;SDS011;389;48.710;9.392;2023-05-13T15:21:34;5.33;;;4.83;;
813;SDS011;389;48.710;9.392;2023-05-13T15:24:00;5.47;;;4.60;;
813;SDS011;389;48.710;9.392;2023-05-13T15:26:25;6.00;;;5.40;;
813;SDS011;389;48.710;9.392;2023-05-13T15:28:51;4.23;;;3.90;;
813;SDS011;389;48.710;9.392;2023-05-13T15:31:16;6.67;;;4.80;;
813;SDS011;389;48.710;9.392;2023-05-13T15:33:42;5.30;;;4.40;;
813;SDS011;389;48.710;9.392;2023-05-13T15:36:07;5.60;;;4.90;;
813;SDS011;389;48.710;9.392;2023-05-13T15:38:34;5.17;;;4.70;;
813;SDS011;389;48.710;9.392;2023-05-13T15:41:00;4.97;;;4.47;;
813;SDS011;389;48.710;9.392;2023-05-13T15:43:26;4.60;;;4.20;;
813;SDS011;389;48.710;9.392;2023-05-13T15:45:51;5.27;;;4.77;;
813;SDS011;389;48.710;9.392;2023-05-13T15:48:17;4.83;;;4.33;;
813;SDS011;389;48.710;9.392;2023-05-13T15:50:43;4.90;;;4.50;;
813;SDS011;389;48.710;9.392;2023-05-13T15:53:09;5.07;;;4.63;;
813;SDS011;389;48.710;9.392;2023-05-13T15:55:35;6.10;;;5.23;;
813;SDS011;389;48.710;9.392;2023-05-13T15:58:01;5.53;;;4.60;;
813;SDS011;389;48.710;9.392;2023-05-13T16:00:27;4.97;;;4.57;;
813;SDS011;389;48.710;9.392;2023-05-13T16:02:52;5.70;;;4.87;;
813;SDS011;389;48.710;9.392;2023-05-13T16:05:18;6.40;;;5.40;;
813;SDS011;389;48.710;9.392;2023-05-13T16:07:43;5.97;;;4.90;;
813;SDS011;389;48.710;9.392;2023-05-13T16:10:09;7.10;;;5.10;;
813;SDS011;389;48.710;9.392;2023-05-13T16:12:35;5.13;;;4.63;;
813;SDS011;389;48.710;9.392;2023-05-13T16:15:01;7.27;;;5.63;;
813;SDS011;389;48.710;9.392;2023-05-13T16:17:27;6.50;;;5.00;;
813;SDS011;389;48.710;9.392;2023-05-13T16:19:53;5.43;;;4.93;;